Time;durP1;ratioP1;P1;durP2;ratioP2;P2;SDS_P1;SDS_P2;PMS_P1;PMS_P2;Temp;Humidity;BMP_temperature;BMP_pressure;BME280_temperature;BME280_humidity;BME280_pressure;Samples;Min_cycle;Max_cycle;Signal;HPM_P1;HPM_P2
2024/01/02 00:01:24;;;;;;;2.70;1.27;;;8.70;99.90;;;;;;5045234;28;20600;-71
2024/01/02 00:03:49;;;;;;;2.47;1.30;;;8.70;99.90;;;;;;5034957;28;20415;-70
2024/01/02 00:06:15;;;;;;;2.47;1.20;;;8.60;99.90;;;;;;5035304;28;20177;-70
2024/01/02 00:08:41;;;;;;;3.90;1.53;;;8.70;99.90;;;;;;5035022;28;20230;-70
2024/01/02 00:11:07;;;;;;;3.27;1.20;;;8.80;99.90;;;;;;5041757;28;20497;-70
2024/01/02 00:13:33;;;;;;;3.87;1.10;;;8.90;99.90;;;;;;5054652;28;20413;-70
2024/01/02 00:15:58;;;;;;;2.13;1.30;;;8.90;99.90;;;;;;5054767;28;20429;-69
2024/01/02 00:18:24;;;;;;;1.47;0.90;;;8.90;99.90;;;;;;5054291;28;20164;-70
2024/01/02 00:20:49;;;;;;;2.73;1.40;;;8.80;99.90;;;;;;5050219;28;20200;-70
2024/01/02 00:23:15;;;;;;;4.43;1.17;;;8.80;99.90;;;;;;5034758;28;20171;-70
2024/01/02 00:25:41;;;;;;;4.13;1.40;;;8.90;99.90;;;;;;5035030;28;20246;-70
2024/01/02 00:28:06;;;;;;;3.13;1.27;;;9.00;99.90;;;;;;5034724;28;20257;-70
2024/01/02 00:30:34;;;;;;;1.87;1.20;;;9.00;99.90;;;;;;5036571;28;20250;-70
2024/01/02 00:33:03;;;;;;;1.90;1.17;;;8.70;99.90;;;;;;5054749;28;20533;-70
2024/01/02 00:35:29;;;;;;;2.90;1.10;;;8.70;99.90;;;;;;5055013;28;20410;-70
2024/01/02 00:37:54;;;;;;;1.40;1.00;;;8.80;99.90;;;;;;5055195;28;20444;-70
2024/01/02 00:40:20;;;;;;;2.23;1.10;;;8.90;99.90;;;;;;5055276;28;20805;-71
2024/01/02 00:42:45;;;;;;;3.00;1.20;;;8.90;99.90;;;;;;5035123;28;20694;-69
2024/01/02 00:45:11;;;;;;;2.27;0.93;;;8.60;99.90;;;;;;5034258;28;20171;-70
2024/01/02 00:47:36;;;;;;;1.57;1.20;;;8.70;99.90;;;;;;5034075;28;20624;-69
2024/01/02 00:50:03;;;;;;;3.00;1.70;;;8.70;99.90;;;;;;5034318;28;20206;-69
2024/01/02 00:52:29;;;;;;;2.07;0.90;;;8.70;99.90;;;;;;5051543;28;20343;-69
2024/01/02 00:54:54;;;;;;;3.47;1.07;;;8.70;99.90;;;;;;5035732;28;20478;-68
2024/01/02 00:57:20;;;;;;;3.90;1.10;;;8.70;99.90;;;;;;5035607;28;20169;-69
2024/01/02 00:59:46;;;;;;;1.33;0.80;;;8.60;99.90;;;;;;5054001;28;20179;-70
2024/01/02 01:02:11;;;;;;;3.97;0.97;;;8.50;99.90;;;;;;5034970;28;20219;-69
2024/01/02 01:04:48;;;;;;;2.90;1.30;;;8.60;99.90;;;;;;5033652;28;20225;-69
2024/01/02 01:07:13;;;;;;;3.20;1.20;;;8.70;99.90;;;;;;5037490;28;20630;-69
2024/01/02 01:09:39;;;;;;;3.20;1.00;;;8.70;99.90;;;;;;5053233;28;20454;-69
2024/01/02 01:12:06;;;;;;;3.03;1.33;;;8.80;99.90;;;;;;5039340;28;20197;-69
2024/01/02 01:14:31;;;;;;;1.80;1.40;;;8.70;99.90;;;;;;5033758;28;20172;-69
2024/01/02 01:16:59;;;;;;;1.43;1.00;;;8.80;99.90;;;;;;5033398;28;20855;-69
2024/01/02 01:19:25;;;;;;;4.37;1.20;;;8.70;99.90;;;;;;5033554;28;20258;-69
2024/01/02 01:21:51;;;;;;;2.20;0.90;;;8.70;99.90;;;;;;5045195;28;20437;-70
2024/01/02 01:24:17;;;;;;;3.00;0.90;;;8.60;99.90;;;;;;5053325;28;20421;-69
2024/01/02 01:26:43;;;;;;;3.57;0.87;;;8.70;99.90;;;;;;5054087;28;20187;-69
2024/01/02 01:29:08;;;;;;;3.30;0.93;;;8.70;99.90;;;;;;5053305;28;20610;-69
2024/01/02 01:31:34;;;;;;;2.53;1.10;;;8.70;99.90;;;;;;5043312;28;20250;-69
2024/01/02 01:34:00;;;;;;;1.40;0.90;;;8.70;99.90;;;;;;5033255;28;20435;-70
2024/01/02 01:36:26;;;;;;;1.63;1.00;;;8.60;99.90;;;;;;5033537;28;20632;-69
2024/01/02 01:38:51;;;;;;;4.10;1.17;;;8.50;99.90;;;;;;5033703;28;20199;-69
2024/01/02 01:41:17;;;;;;;1.30;0.90;;;8.60;99.90;;;;;;5040396;28;20252;-69
2024/01/02 01:43:43;;;;;;;1.63;1.20;;;8.60;99.90;;;;;;5053448;28;20178;-70
2024/01/02 01:46:09;;;;;;;3.17;1.20;;;8.60;99.90;;;;;;5035202;28;20418;-70
2024/01/02 01:48:35;;;;;;;3.30;1.57;;;8.60;99.90;;;;;;5053525;28;20290;-69
2024/01/02 01:51:01;;;;;;;3.60;1.50;;;8.70;99.90;;;;;;5059504;28;20456;-70
2024/01/02 01:53:28;;;;;;;0.87;0.80;;;8.70;99.90;;;;;;5038912;28;20251;-70
2024/01/02 01:55:54;;;;;;;1.90;0.93;;;8.70;99.90;;;;;;5016455;28;20949;-69
2024/01/02 01:58:20;;;;;;;1.50;0.87;;;8.60;99.90;;;;;;5033552;28;20449;-71
2024/01/02 02:00:45;;;;;;;2.87;1.00;;;8.50;99.90;;;;;;5037501;28;20851;-71
2024/01/02 02:03:12;;;;;;;2.90;1.23;;;8.60;99.90;;;;;;5053228;28;20239;-72
2024/01/02 02:05:38;;;;;;;1.77;0.80;;;8.60;99.90;;;;;;5052996;28;20174;-70
2024/01/02 02:08:03;;;;;;;2.00;0.93;;;8.70;99.90;;;;;;5053347;28;20454;-70
2024/01/02 02:10:29;;;;;;;4.73;1.00;;;8.60;99.90;;;;;;5058748;28;20220;-71
2024/01/02 02:12:56;;;;;;;1.80;1.17;;;8.60;99.90;;;;;;5013903;28;20207;-70
2024/01/02 02:15:22;;;;;;;1.47;0.87;;;8.70;99.90;;;;;;5013330;28;20853;-70
2024/01/02 02:17:47;;;;;;;3.20;1.00;;;8.70;99.90;;;;;;5013102;28;20491;-70
2024/01/02 02:20:13;;;;;;;1.63;0.87;;;8.80;99.90;;;;;;5013695;28;20185;-69
2024/01/02 02:22:44;;;;;;;2.17;1.27;;;8.80;99.90;;;;;;5029908;28;20237;-69
2024/01/02 02:25:09;;;;;;;0.90;0.77;;;8.70;99.90;;;;;;5052827;28;20166;-69
2024/01/02 02:27:35;;;;;;;2.40;1.20;;;8.80;99.90;;;;;;5052482;28;20900;-70
2024/01/02 02:30:01;;;;;;;2.27;0.80;;;8.80;99.90;;;;;;5052875;28;20195;-69
2024/01/02 02:32:26;;;;;;;1.00;0.80;;;8.80;99.90;;;;;;5036587;28;20435;-70
2024/01/02 02:34:52;;;;;;;4.10;1.10;;;8.90;99.90;;;;;;5033045;28;20183;-70
2024/01/02 02:37:17;;;;;;;1.37;0.80;;;8.80;99.90;;;;;;5033226;28;20172;-70
2024/01/02 02:39:43;;;;;;;1.13;0.70;;;8.90;99.90;;;;;;5032674;28;20527;-69
2024/01/02 02:42:09;;;;;;;2.23;0.70;;;8.90;99.90;;;;;;5047731;28;20710;-69
2024/01/02 02:44:34;;;;;;;1.80;1.00;;;9.10;99.90;;;;;;5056272;28;20631;-71
2024/01/02 02:47:00;;;;;;;3.63;0.80;;;9.10;99.90;;;;;;5056135;28;20259;-71
2024/01/02 02:49:26;;;;;;;1.17;0.80;;;8.90;99.90;;;;;;5056386;28;20230;-69
2024/01/02 02:51:52;;;;;;;2.90;0.90;;;8.90;99.90;;;;;;5045230;28;20192;-68
2024/01/02 02:54:18;;;;;;;1.00;0.77;;;8.90;99.90;;;;;;5036876;28;20404;-69
2024/01/02 02:56:44;;;;;;;2.20;0.90;;;8.90;99.90;;;;;;5002600;28;20279;-70
2024/01/02 02:59:11;;;;;;;1.20;0.80;;;8.90;99.90;;;;;;5036620;28;20506;-70
2024/01/02 03:01:36;;;;;;;1.80;0.70;;;8.80;99.90;;;;;;5045099;28;20808;-70
2024/01/02 03:04:02;;;;;;;1.40;0.83;;;8.70;99.90;;;;;;5033097;28;20419;-69
2024/01/02 03:06:28;;;;;;;3.03;0.80;;;8.70;99.90;;;;;;5016152;28;20224;-70
2024/01/02 03:08:53;;;;;;;1.30;0.80;;;8.70;99.90;;;;;;5016908;28;20196;-69
2024/01/02 03:11:19;;;;;;;2.30;1.20;;;8.80;99.90;;;;;;5028027;28;20727;-69
2024/01/02 03:13:44;;;;;;;1.43;0.80;;;8.80;99.90;;;;;;5055898;28;20161;-69
2024/01/02 03:16:10;;;;;;;1.57;0.93;;;8.70;99.90;;;;;;5055809;28;20525;-69
2024/01/02 03:18:36;;;;;;;2.40;0.83;;;8.70;99.90;;;;;;5055530;28;20164;-70
2024/01/02 03:21:01;;;;;;;1.60;0.80;;;8.60;99.90;;;;;;5052006;28;20182;-70
2024/01/02 03:23:27;;;;;;;1.27;0.77;;;8.60;99.90;;;;;;5036035;28;20726;-70
2024/01/02 03:25:53;;;;;;;1.00;0.60;;;8.40;99.90;;;;;;5035664;28;20661;-69
2024/01/02 03:28:18;;;;;;;2.20;0.90;;;8.50;99.90;;;;;;5035544;28;20192;-70
2024/01/02 03:30:44;;;;;;;0.80;0.60;;;8.50;99.90;;;;;;5036134;28;20283;-70
2024/01/02 03:33:09;;;;;;;1.50;0.90;;;8.60;99.90;;;;;;5055666;28;20553;-70
2024/01/02 03:35:35;;;;;;;1.33;0.80;;;8.60;99.90;;;;;;5055853;28;20160;-70
2024/01/02 03:38:01;;;;;;;1.10;0.70;;;8.60;99.90;;;;;;5055548;28;20322;-70
2024/01/02 03:40:26;;;;;;;1.67;0.90;;;8.50;99.90;;;;;;5055790;28;20250;-70
2024/01/02 03:42:52;;;;;;;1.13;0.63;;;8.50;99.90;;;;;;5037267;28;20210;-70
2024/01/02 03:45:17;;;;;;;2.20;0.70;;;8.50;99.90;;;;;;5035670;28;20539;-70
2024/01/02 03:47:43;;;;;;;1.67;0.63;;;8.50;99.90;;;;;;5036245;28;20273;-70
2024/01/02 03:50:09;;;;;;;2.17;0.90;;;8.50;99.90;;;;;;5035989;28;20280;-70
2024/01/02 03:52:35;;;;;;;1.73;0.80;;;8.40;99.90;;;;;;5050256;28;20459;-70
2024/01/02 03:55:00;;;;;;;1.10;0.60;;;8.40;99.90;;;;;;5055428;28;20221;-70
2024/01/02 03:57:26;;;;;;;1.10;0.70;;;8.50;99.90;;;;;;5055156;28;20171;-70
2024/01/02 03:59:52;;;;;;;1.30;0.60;;;8.40;99.90;;;;;;5055805;28;20182;-69
2024/01/02 04:02:18;;;;;;;0.70;0.50;;;8.40;99.90;;;;;;5039604;28;20460;-69
2024/01/02 04:04:45;;;;;;;1.27;0.50;;;8.40;99.90;;;;;;5035158;28;20421;-69
2024/01/02 04:07:10;;;;;;;0.90;0.60;;;8.30;99.90;;;;;;5034667;28;20406;-69
2024/01/02 04:09:36;;;;;;;0.90;0.60;;;8.30;99.90;;;;;;5016885;28;20451;-69
2024/01/02 04:12:02;;;;;;;1.60;0.80;;;8.30;99.90;;;;;;5045721;28;20186;-69
2024/01/02 04:14:27;;;;;;;0.83;0.50;;;8.30;99.90;;;;;;5054868;28;20166;-69
2024/01/02 04:16:53;;;;;;;0.73;0.50;;;8.40;99.90;;;;;;5054687;28;20166;-68
2024/01/02 04:19:21;;;;;;;0.77;0.50;;;8.40;99.90;;;;;;5054562;28;20170;-69
2024/01/02 04:21:47;;;;;;;1.00;0.60;;;8.40;99.90;;;;;;5045528;28;20659;-69
2024/01/02 04:24:14;;;;;;;0.80;0.50;;;8.30;99.90;;;;;;5034782;28;20444;-69
2024/01/02 04:26:39;;;;;;;1.37;0.50;;;8.30;99.90;;;;;;5034309;28;20168;-69
2024/01/02 04:29:05;;;;;;;3.10;0.60;;;8.40;99.90;;;;;;5034469;28;20455;-69
2024/01/02 04:31:30;;;;;;;0.77;0.60;;;8.40;99.90;;;;;;5040541;28;20175;-69
2024/01/02 04:33:56;;;;;;;1.87;0.70;;;8.20;99.90;;;;;;5054053;28;20676;-69
2024/01/02 04:36:25;;;;;;;0.90;0.50;;;8.20;99.90;;;;;;5054043;28;20614;-69
2024/01/02 04:38:51;;;;;;;1.23;0.50;;;8.10;99.90;;;;;;5054191;28;20169;-69
2024/01/02 04:41:16;;;;;;;0.93;0.53;;;8.10;99.90;;;;;;5032072;28;20431;-69
2024/01/02 04:43:42;;;;;;;2.93;0.80;;;8.10;99.90;;;;;;5034139;28;20171;-68
2024/01/02 04:46:07;;;;;;;0.80;0.50;;;8.10;99.90;;;;;;5033916;28;20171;-70
2024/01/02 04:48:33;;;;;;;1.13;0.50;;;8.10;99.90;;;;;;5016077;28;20202;-70
2024/01/02 04:50:58;;;;;;;1.67;0.70;;;8.00;99.90;;;;;;5035411;28;20187;-69
2024/01/02 04:53:24;;;;;;;0.70;0.60;;;7.90;99.90;;;;;;5054155;28;20190;-70
2024/01/02 04:55:49;;;;;;;0.90;0.70;;;7.90;99.90;;;;;;5053995;28;20258;-70
2024/01/02 04:58:15;;;;;;;1.40;0.73;;;7.90;99.90;;;;;;5053835;28;20173;-70
2024/01/02 05:00:40;;;;;;;0.93;0.57;;;7.80;99.90;;;;;;5035744;28;20281;-70
2024/01/02 05:03:06;;;;;;;1.17;0.80;;;7.80;99.90;;;;;;5034558;28;20175;-69
2024/01/02 05:05:31;;;;;;;0.90;0.50;;;7.90;99.90;;;;;;5049243;28;20189;-70
2024/01/02 05:07:58;;;;;;;1.67;0.60;;;7.80;99.90;;;;;;5053848;28;20174;-70
2024/01/02 05:10:23;;;;;;;1.00;0.57;;;7.90;99.90;;;;;;5039228;28;20277;-71
2024/01/02 05:12:50;;;;;;;1.73;0.60;;;7.90;99.90;;;;;;5046643;28;20910;-70
2024/01/02 05:15:16;;;;;;;2.00;1.30;;;7.80;99.90;;;;;;5053930;28;20166;-70
2024/01/02 05:17:42;;;;;;;5.33;0.73;;;7.80;99.90;;;;;;5053616;28;20495;-70
2024/01/02 05:20:08;;;;;;;1.37;0.60;;;7.80;99.90;;;;;;5053859;28;20431;-70
2024/01/02 05:22:35;;;;;;;1.03;0.50;;;7.80;99.90;;;;;;5039249;28;20544;-70
2024/01/02 05:25:00;;;;;;;2.60;0.90;;;7.80;99.90;;;;;;5033665;28;20489;-69
2024/01/02 05:27:26;;;;;;;1.63;0.87;;;7.70;99.90;;;;;;5033605;28;20420;-70
2024/01/02 05:29:52;;;;;;;1.20;0.70;;;7.80;99.90;;;;;;5033354;28;20230;-69
2024/01/02 05:32:17;;;;;;;0.70;0.53;;;7.80;99.90;;;;;;5045127;28;20189;-71
2024/01/02 05:34:43;;;;;;;0.90;0.70;;;7.80;99.90;;;;;;5053159;28;20178;-71
2024/01/02 05:37:08;;;;;;;1.63;0.87;;;7.80;99.90;;;;;;5052973;28;20693;-71
2024/01/02 05:39:34;;;;;;;1.80;0.60;;;7.70;99.90;;;;;;5052837;28;20258;-71
2024/01/02 05:41:59;;;;;;;0.80;0.50;;;7.80;99.90;;;;;;5025608;28;20217;-71
2024/01/02 05:44:25;;;;;;;1.87;0.70;;;7.80;99.90;;;;;;5032821;28;20644;-70
2024/01/02 05:46:50;;;;;;;1.40;0.73;;;7.80;99.90;;;;;;5032920;28;20641;-71
2024/01/02 05:49:16;;;;;;;1.17;0.80;;;7.70;99.90;;;;;;5032723;28;20209;-71
2024/01/02 05:51:41;;;;;;;0.93;0.60;;;7.70;99.90;;;;;;5039658;28;20222;-71
2024/01/02 05:54:07;;;;;;;0.80;0.63;;;7.90;99.90;;;;;;5052890;28;20535;-71
2024/01/02 05:56:32;;;;;;;2.03;0.90;;;7.80;99.90;;;;;;5052652;28;20174;-71
2024/01/02 05:58:58;;;;;;;0.87;0.60;;;7.90;99.90;;;;;;5049372;28;20170;-71
2024/01/02 06:01:24;;;;;;;0.90;0.67;;;7.90;99.90;;;;;;5048320;28;20270;-70
2024/01/02 06:03:49;;;;;;;2.03;0.60;;;7.90;99.90;;;;;;5032916;28;20178;-71
2024/01/02 06:06:15;;;;;;;1.20;0.77;;;7.80;99.90;;;;;;5033023;28;20177;-71
2024/01/02 06:08:41;;;;;;;1.10;0.70;;;7.90;99.90;;;;;;5032808;28;20210;-71
2024/01/02 06:11:08;;;;;;;1.10;0.67;;;7.90;99.90;;;;;;5034272;28;20179;-72
2024/01/02 06:13:34;;;;;;;1.47;0.50;;;8.00;99.90;;;;;;5053292;28;20449;-71
2024/01/02 06:16:00;;;;;;;0.90;0.60;;;7.90;99.90;;;;;;5052508;28;20459;-71
2024/01/02 06:18:26;;;;;;;0.90;0.63;;;7.90;99.90;;;;;;5052394;28;20170;-71
2024/01/02 06:20:51;;;;;;;1.00;0.60;;;8.00;99.90;;;;;;5052302;28;20813;-71
2024/01/02 06:23:17;;;;;;;1.70;0.70;;;8.00;99.90;;;;;;5015330;28;20610;-71
2024/01/02 06:25:42;;;;;;;0.70;0.60;;;8.00;99.90;;;;;;5032307;28;20179;-71
2024/01/02 06:28:08;;;;;;;1.93;0.60;;;8.00;99.90;;;;;;5032814;28;20177;-70
2024/01/02 06:30:34;;;;;;;0.87;0.60;;;8.10;99.90;;;;;;5032445;28;20374;-71
2024/01/02 06:32:59;;;;;;;1.30;0.90;;;8.10;99.90;;;;;;5031970;28;20170;-71
2024/01/02 06:35:25;;;;;;;1.00;0.70;;;8.10;99.90;;;;;;5032516;28;20192;-70
2024/01/02 06:37:50;;;;;;;1.30;0.87;;;8.10;99.90;;;;;;5032344;28;20171;-70
2024/01/02 06:40:16;;;;;;;1.10;0.70;;;8.10;99.90;;;;;;5031771;28;20170;-71
2024/01/02 06:42:42;;;;;;;0.80;0.60;;;8.10;99.90;;;;;;5045303;28;20233;-71
2024/01/02 06:45:08;;;;;;;0.87;0.70;;;8.20;99.90;;;;;;5053204;28;20177;-70
2024/01/02 06:47:33;;;;;;;0.90;0.67;;;8.10;99.90;;;;;;5053964;28;20174;-71
2024/01/02 06:49:59;;;;;;;1.83;0.70;;;8.20;99.90;;;;;;5052206;28;20441;-70
2024/01/02 06:52:25;;;;;;;1.00;0.80;;;8.10;99.90;;;;;;5041881;28;20194;-70
2024/01/02 06:54:50;;;;;;;1.30;0.60;;;8.10;99.90;;;;;;5034385;28;20411;-69
2024/01/02 06:57:16;;;;;;;1.00;0.60;;;8.20;99.90;;;;;;5033470;28;20167;-71
2024/01/02 06:59:43;;;;;;;0.90;0.70;;;8.20;99.90;;;;;;5033999;28;20178;-70
2024/01/02 07:02:08;;;;;;;0.80;0.60;;;8.10;99.90;;;;;;5040509;28;20198;-68
2024/01/02 07:04:37;;;;;;;1.53;0.57;;;8.10;99.90;;;;;;5033188;28;20773;-71
2024/01/02 07:07:03;;;;;;;0.90;0.67;;;8.20;99.90;;;;;;5032577;28;20425;-70
2024/01/02 07:09:29;;;;;;;1.10;0.60;;;8.20;99.90;;;;;;5032119;28;20799;-70
2024/01/02 07:11:54;;;;;;;1.13;0.80;;;8.30;99.90;;;;;;5038762;28;20208;-69
2024/01/02 07:14:20;;;;;;;1.10;0.50;;;8.30;99.90;;;;;;5052360;28;20178;-69
2024/01/02 07:16:45;;;;;;;1.00;0.70;;;8.30;99.90;;;;;;5052215;28;20249;-71
2024/01/02 07:19:11;;;;;;;0.93;0.80;;;8.30;99.90;;;;;;5052447;28;20178;-70
2024/01/02 07:21:36;;;;;;;1.10;0.70;;;8.30;99.90;;;;;;5048103;28;20223;-71
2024/01/02 07:24:02;;;;;;;1.30;0.70;;;8.20;99.90;;;;;;5032025;28;20197;-71
2024/01/02 07:26:27;;;;;;;0.70;0.60;;;8.30;99.90;;;;;;5032648;28;20656;-69
2024/01/02 07:28:53;;;;;;;0.70;0.57;;;8.30;99.90;;;;;;5034323;28;20680;-69
2024/01/02 07:31:19;;;;;;;1.07;0.60;;;8.30;99.90;;;;;;5037016;28;20649;-70
2024/01/02 07:33:44;;;;;;;1.03;0.60;;;8.30;99.90;;;;;;5055791;28;20167;-69
2024/01/02 07:36:10;;;;;;;0.73;0.60;;;8.30;99.90;;;;;;5056240;28;20783;-70
2024/01/02 07:38:36;;;;;;;1.20;0.73;;;8.30;99.90;;;;;;5056092;28;20174;-69
2024/01/02 07:41:01;;;;;;;0.90;0.60;;;8.30;99.90;;;;;;5056473;28;20665;-71
2024/01/02 07:43:30;;;;;;;1.20;0.80;;;8.50;99.90;;;;;;5037311;28;20540;-69
2024/01/02 07:45:56;;;;;;;0.70;0.60;;;8.50;99.90;;;;;;5035739;28;20160;-69
2024/01/02 07:48:21;;;;;;;0.83;0.60;;;8.50;99.90;;;;;;5035650;28;20403;-69
2024/01/02 07:50:47;;;;;;;1.10;0.60;;;8.50;99.90;;;;;;5035090;28;20487;-69
2024/01/02 07:53:16;;;;;;;1.17;0.57;;;8.60;99.90;;;;;;5052081;28;20175;-71
2024/01/02 07:55:41;;;;;;;1.90;0.70;;;8.60;99.90;;;;;;5037380;28;20165;-71
2024/01/02 07:58:07;;;;;;;1.07;0.67;;;8.50;99.90;;;;;;5037318;28;20406;-70
2024/01/02 08:00:33;;;;;;;1.40;0.63;;;8.60;99.90;;;;;;5052183;28;20188;-70
2024/01/02 08:02:59;;;;;;;1.20;0.87;;;8.70;99.90;;;;;;5040616;28;20165;-70
2024/01/02 08:05:24;;;;;;;2.80;0.90;;;8.70;99.90;;;;;;5035564;28;20487;-69
2024/01/02 08:07:50;;;;;;;1.50;0.70;;;8.70;99.90;;;;;;5035723;28;20212;-72
2024/01/02 08:10:15;;;;;;;0.70;0.60;;;8.70;99.90;;;;;;5036311;28;20189;-72
2024/01/02 08:12:41;;;;;;;1.00;0.70;;;8.80;99.90;;;;;;5047923;28;20271;-71
2024/01/02 08:15:07;;;;;;;0.90;0.60;;;8.80;99.90;;;;;;5056297;28;20165;-70
2024/01/02 08:17:33;;;;;;;1.00;0.60;;;8.90;99.90;;;;;;5055774;28;20171;-70
2024/01/02 08:19:58;;;;;;;3.03;0.60;;;9.00;99.90;;;;;;5055327;28;20408;-70
2024/01/02 08:22:24;;;;;;;1.63;0.83;;;9.00;99.90;;;;;;5046537;28;20627;-70
2024/01/02 08:24:50;;;;;;;0.90;0.60;;;9.00;99.90;;;;;;5035009;28;20708;-71
2024/01/02 08:27:15;;;;;;;0.90;0.77;;;9.00;99.90;;;;;;5034691;28;20168;-73
2024/01/02 08:29:41;;;;;;;0.90;0.60;;;9.00;99.90;;;;;;5035015;28;20736;-69
2024/01/02 08:32:06;;;;;;;1.10;0.70;;;9.00;99.90;;;;;;5041408;28;20195;-71
2024/01/02 08:34:32;;;;;;;0.73;0.57;;;9.10;99.90;;;;;;5055042;28;20166;-72
2024/01/02 08:36:57;;;;;;;0.90;0.60;;;9.00;99.90;;;;;;5054535;28;20199;-72
2024/01/02 08:39:23;;;;;;;0.70;0.60;;;9.10;99.90;;;;;;5054274;28;20266;-71
2024/01/02 08:41:49;;;;;;;0.83;0.57;;;9.10;99.90;;;;;;5050129;28;20241;-72
2024/01/02 08:44:14;;;;;;;1.20;0.57;;;9.10;99.90;;;;;;5034292;28;20491;-71
2024/01/02 08:46:40;;;;;;;0.80;0.50;;;9.20;99.90;;;;;;5034454;28;20638;-71
2024/01/02 08:49:06;;;;;;;1.23;0.70;;;9.30;99.90;;;;;;5034221;28;20668;-70
2024/01/02 08:51:32;;;;;;;1.20;0.60;;;9.40;99.90;;;;;;5036182;28;20206;-71
2024/01/02 08:53:58;;;;;;;1.30;0.67;;;9.40;99.90;;;;;;5054246;28;20777;-71
2024/01/02 08:56:24;;;;;;;1.37;0.60;;;9.40;99.90;;;;;;5054892;28;20406;-72
2024/01/02 08:58:49;;;;;;;1.27;0.60;;;9.50;99.90;;;;;;5054376;28;20181;-71
2024/01/02 09:01:17;;;;;;;0.90;0.60;;;9.60;99.90;;;;;;5054555;28;20291;-71
2024/01/02 09:03:43;;;;;;;0.70;0.60;;;9.70;99.90;;;;;;5034288;28;20177;-71
2024/01/02 09:06:09;;;;;;;1.17;0.80;;;9.70;99.90;;;;;;5034063;28;20402;-70
2024/01/02 09:08:34;;;;;;;1.63;0.50;;;9.70;99.90;;;;;;5043227;28;20405;-70
2024/01/02 09:11:00;;;;;;;1.00;0.60;;;9.70;99.90;;;;;;5052905;28;20198;-70
2024/01/02 09:13:25;;;;;;;0.90;0.60;;;9.70;99.90;;;;;;5015168;28;20170;-70
2024/01/02 09:15:52;;;;;;;1.10;0.70;;;9.60;99.90;;;;;;5033818;28;20160;-72
2024/01/02 09:18:17;;;;;;;0.90;0.60;;;9.70;99.90;;;;;;5034140;28;20172;-70
2024/01/02 09:20:44;;;;;;;1.13;0.80;;;9.70;99.90;;;;;;5033792;28;20463;-70
2024/01/02 09:23:10;;;;;;;0.93;0.70;;;9.80;99.90;;;;;;5048598;28;20172;-70
2024/01/02 09:25:39;;;;;;;1.70;0.70;;;9.80;99.90;;;;;;5054615;28;20403;-71
2024/01/02 09:28:06;;;;;;;1.23;0.60;;;9.80;99.90;;;;;;5054033;28;20585;-70
2024/01/02 09:30:33;;;;;;;1.17;0.60;;;10.00;99.90;;;;;;5053772;28;20470;-69
2024/01/02 09:32:59;;;;;;;0.70;0.50;;;10.00;99.90;;;;;;5040632;28;20427;-70
2024/01/02 09:35:24;;;;;;;1.07;0.60;;;10.00;99.90;;;;;;5033907;28;20469;-70
2024/01/02 09:37:50;;;;;;;1.47;0.50;;;10.10;99.90;;;;;;5033914;28;20865;-69
2024/01/02 09:40:57;;;;;;;0.80;0.50;;;10.20;99.90;;;;;;5033637;28;20177;-71
2024/01/02 09:43:57;;;;;;;0.90;0.50;;;10.10;99.90;;;;;;5050141;28;20172;-69
2024/01/02 09:46:35;;;;;;;0.80;0.50;;;10.20;99.90;;;;;;5053489;28;20403;-70
2024/01/02 09:49:09;;;;;;;5.33;0.60;;;10.30;99.90;;;;;;5053602;28;20433;-69
2024/01/02 09:51:56;;;;;;;0.87;0.50;;;10.30;99.90;;;;;;5033349;28;20433;-70
2024/01/02 09:54:40;;;;;;;0.90;0.40;;;10.40;99.90;;;;;;5015789;28;20475;-70
2024/01/02 09:57:16;;;;;;;1.20;0.70;;;10.40;99.90;;;;;;5015786;28;20417;-72
2024/01/02 09:59:50;;;;;;;0.70;0.40;;;10.40;99.90;;;;;;5033626;28;20383;-70
2024/01/02 10:02:19;;;;;;;2.00;0.50;;;10.40;99.90;;;;;;5042490;28;20450;-70
2024/01/02 10:05:03;;;;;;;0.80;0.50;;;10.60;99.90;;;;;;5053563;28;20914;-70
2024/01/02 10:07:36;;;;;;;0.90;0.70;;;10.60;99.90;;;;;;5035267;28;20466;-70
2024/01/02 10:10:43;;;;;;;4.90;0.60;;;10.60;99.90;;;;;;5053445;28;20966;-73
2024/01/02 10:13:27;;;;;;;2.07;1.40;;;10.60;99.90;;;;;;5028435;28;20509;-70
2024/01/02 10:16:01;;;;;;;0.80;0.50;;;10.70;99.90;;;;;;5033300;28;20481;-70
2024/01/02 10:18:30;;;;;;;0.80;0.50;;;10.70;99.90;;;;;;5033509;28;20392;-71
2024/01/02 10:21:04;;;;;;;1.00;0.80;;;10.70;99.90;;;;;;5033198;28;20952;-71
2024/01/02 10:23:54;;;;;;;1.23;0.90;;;10.80;99.90;;;;;;5049574;28;20882;-71
2024/01/02 10:26:23;;;;;;;0.70;0.50;;;10.80;99.90;;;;;;5053027;28;20477;-72
2024/01/02 10:28:52;;;;;;;3.27;2.93;;;11.00;99.90;;;;;;5053100;28;20417;-70
2024/01/02 10:31:29;;;;;;;1.50;1.40;;;11.10;99.90;;;;;;5034775;28;20935;-70
2024/01/02 10:34:23;;;;;;;4.03;2.83;;;11.00;99.90;;;;;;5013372;28;20544;-70
2024/01/02 10:36:58;;;;;;;1.43;1.20;;;10.90;99.90;;;;;;5030193;28;20398;-71
2024/01/02 10:39:49;;;;;;;1.50;0.80;;;11.00;99.90;;;;;;5015197;28;20472;-74
2024/01/02 10:42:46;;;;;;;2.23;1.03;;;11.00;99.90;;;;;;5035490;28;20441;-71
2024/01/02 10:45:14;;;;;;;1.53;1.40;;;11.00;99.90;;;;;;5053259;28;20756;-71
2024/01/02 10:48:01;;;;;;;1.50;1.40;;;10.90;99.90;;;;;;5052731;28;20415;-70
2024/01/02 10:50:38;;;;;;;1.00;0.80;;;11.00;99.90;;;;;;5052701;28;20441;-71
2024/01/02 10:53:46;;;;;;;0.70;0.50;;;11.00;99.90;;;;;;5040274;28;20823;-69
2024/01/02 10:56:55;;;;;;;0.80;0.50;;;10.90;99.90;;;;;;5024248;28;20448;-71
2024/01/02 10:59:39;;;;;;;3.60;3.30;;;11.00;99.90;;;;;;5032742;28;20405;-71
2024/01/02 11:02:24;;;;;;;1.10;0.97;;;11.10;99.90;;;;;;5037646;28;20466;-71
2024/01/02 11:05:03;;;;;;;0.90;0.50;;;11.30;99.90;;;;;;5056765;28;20393;-71
2024/01/02 11:07:38;;;;;;;1.40;0.80;;;11.30;99.90;;;;;;5056486;28;20423;-71
2024/01/02 11:10:29;;;;;;;0.80;0.60;;;11.40;99.90;;;;;;5040842;28;20451;-71
2024/01/02 11:13:03;;;;;;;0.70;0.57;;;11.50;99.90;;;;;;5044187;28;20476;-71
2024/01/02 11:15:31;;;;;;;0.87;0.60;;;11.60;99.90;;;;;;5056416;28;20422;-71
2024/01/02 11:17:58;;;;;;;1.30;1.00;;;11.40;99.90;;;;;;5056396;28;20416;-71
2024/01/02 11:20:34;;;;;;;4.10;3.70;;;11.40;99.90;;;;;;5056028;28;20519;-71
2024/01/02 11:23:11;;;;;;;1.37;0.50;;;11.40;99.90;;;;;;5045646;28;20423;-71
2024/01/02 11:25:47;;;;;;;1.50;0.70;;;11.50;99.90;;;;;;5056293;28;20872;-70
2024/01/02 11:28:15;;;;;;;1.60;0.50;;;11.60;99.90;;;;;;5038192;28;20409;-71
2024/01/02 11:30:41;;;;;;;1.10;0.63;;;11.70;99.90;;;;;;5055787;28;20571;-70
2024/01/02 11:33:28;;;;;;;0.70;0.40;;;11.80;99.90;;;;;;5043610;28;20404;-71
2024/01/02 11:36:10;;;;;;;0.80;0.50;;;11.80;99.90;;;;;;5036142;28;20479;-69
2024/01/02 11:39:02;;;;;;;0.80;0.47;;;12.00;99.90;;;;;;5036451;28;20729;-70
2024/01/02 11:41:44;;;;;;;0.70;0.50;;;12.10;99.90;;;;;;5028439;28;20440;-69
2024/01/02 11:44:35;;;;;;;0.70;0.40;;;12.30;99.90;;;;;;5016812;28;20751;-69
2024/01/02 11:47:10;;;;;;;2.30;0.60;;;12.20;99.90;;;;;;5016620;28;20387;-69
2024/01/02 11:49:43;;;;;;;0.97;0.60;;;12.30;99.90;;;;;;5016372;28;20439;-69
2024/01/02 11:52:15;;;;;;;0.80;0.60;;;12.00;99.90;;;;;;5024438;28;20433;-70
2024/01/02 11:54:43;;;;;;;0.80;0.50;;;12.10;99.90;;;;;;5056068;28;20388;-70
2024/01/02 11:57:21;;;;;;;0.90;0.60;;;12.00;99.90;;;;;;5046570;28;20414;-70
2024/01/02 12:00:02;;;;;;;1.00;0.50;;;12.00;99.90;;;;;;5026452;28;20491;-69
2024/01/02 12:02:55;;;;;;;0.70;0.50;;;12.10;99.90;;;;;;5026234;28;20899;-71
2024/01/02 12:05:39;;;;;;;1.00;0.70;;;12.20;99.90;;;;;;5026432;28;20419;-73
2024/01/02 12:08:14;;;;;;;0.70;0.50;;;12.20;99.90;;;;;;5008409;28;20424;-72
2024/01/02 12:10:49;;;;;;;0.70;0.60;;;12.10;99.90;;;;;;5008274;28;20469;-69
2024/01/02 12:14:06;;;;;;;0.90;0.60;;;12.00;99.90;;;;;;5008367;28;20422;-71
2024/01/02 12:16:36;;;;;;;0.80;0.60;;;12.10;99.90;;;;;;4984275;28;20431;-72
2024/01/02 12:19:06;;;;;;;1.07;0.60;;;12.00;99.90;;;;;;5023269;28;20894;-71
2024/01/02 12:21:37;;;;;;;0.80;0.50;;;11.90;99.90;;;;;;5026366;28;20447;-71
2024/01/02 12:24:04;;;;;;;0.90;0.70;;;11.80;99.90;;;;;;5026227;28;20468;-72
2024/01/02 12:26:34;;;;;;;1.17;0.80;;;11.70;99.90;;;;;;5025547;28;20410;-73
2024/01/02 12:29:01;;;;;;;1.20;0.73;;;11.60;99.90;;;;;;5025351;28;20417;-69
2024/01/02 12:31:43;;;;;;;1.10;0.70;;;11.60;99.90;;;;;;5025731;28;20525;-70
2024/01/02 12:34:14;;;;;;;0.70;0.50;;;11.70;99.90;;;;;;5025653;28;20411;-70
2024/01/02 12:36:51;;;;;;;0.97;0.70;;;11.60;99.90;;;;;;5025943;28;20945;-68
2024/01/02 12:39:19;;;;;;;1.97;0.70;;;11.60;99.90;;;;;;5034983;28;20962;-70
2024/01/02 12:41:51;;;;;;;1.00;0.70;;;11.50;99.90;;;;;;5034975;28;20430;-71
2024/01/02 12:44:18;;;;;;;1.17;0.50;;;11.50;99.90;;;;;;5034962;28;20383;-71
2024/01/02 12:46:55;;;;;;;1.87;0.60;;;11.40;99.90;;;;;;5047610;28;20413;-70
2024/01/02 12:49:27;;;;;;;2.03;0.70;;;11.50;99.90;;;;;;5036789;28;20999;-68
2024/01/02 12:52:04;;;;;;;1.13;0.73;;;11.40;99.90;;;;;;5039695;28;20430;-68
2024/01/02 12:54:30;;;;;;;1.73;0.60;;;11.50;99.90;;;;;;5025231;28;20413;-68
2024/01/02 12:57:02;;;;;;;0.80;0.53;;;11.50;99.90;;;;;;5025299;28;20410;-70
2024/01/02 12:59:30;;;;;;;1.10;0.60;;;11.50;99.90;;;;;;5025139;28;20439;-70
2024/01/02 13:01:57;;;;;;;0.90;0.60;;;11.40;99.90;;;;;;5025066;28;20458;-74
2024/01/02 13:04:24;;;;;;;1.50;0.70;;;11.30;99.90;;;;;;5024924;28;21177;-74